sensor_id;sensor_type;location;lat;lon;timestamp;temperature;humidity
15700;DHT22;7950;42.744;23.174;2023-04-20T00:00:29;8.90;99.90
15700;DHT22;7950;42.744;23.174;2023-04-20T00:02:58;8.90;99.90
15700;DHT22;7950;42.744;23.174;2023-04-20T00:05:28;8.90;99.90
15700;DHT22;7950;42.744;23.174;2023-04-20T00:07:58;8.90;99.90
15700;DHT22;7950;42.744;23.174;2023-04-20T00:10:27;8.90;99.90
15700;DHT22;7950;42.744;23.174;2023-04-20T00:12:57;8.90;99.90
15700;DHT22;7950;42.744;23.174;2023-04-20T00:15:25;8.80;99.90
15700;DHT22;7950;42.744;23.174;2023-04-20T00:17:53;8.80;99.90
15700;DHT22;7950;42.744;23.174;2023-04-20T00:20:31;8.90;99.90
15700;DHT22;7950;42.744;23.174;2023-04-20T00:23:01;8.90;99.90
15700;DHT22;7950;42.744;23.174;2023-04-20T00:25:30;9.00;99.90
15700;DHT22;7950;42.744;23.174;2023-04-20T00:27:59;9.00;99.90
15700;DHT22;7950;42.744;23.174;2023-04-20T00:30:28;9.10;99.90
15700;DHT22;7950;42.744;23.174;2023-04-20T00:32:56;9.10;99.90
15700;DHT22;7950;42.744;23.174;2023-04-20T00:35:25;9.10;99.90
15700;DHT22;7950;42.744;23.174;2023-04-20T00:37:53;9.10;99.90
15700;DHT22;7950;42.744;23.174;2023-04-20T00:40:22;9.10;99.90
15700;DHT22;7950;42.744;23.174;2023-04-20T00:42:50;9.10;99.90
15700;DHT22;7950;42.744;23.174;2023-04-20T00:45:20;9.00;99.90
15700;DHT22;7950;42.744;23.174;2023-04-20T00:47:50;9.10;99.90
15700;DHT22;7950;42.744;23.174;2023-04-20T00:50:18;9.10;99.90
15700;DHT22;7950;42.744;23.174;2023-04-20T00:52:47;9.10;99.90
15700;DHT22;7950;42.744;23.174;2023-04-20T00:55:15;9.10;99.90
15700;DHT22;7950;42.744;23.174;2023-04-20T00:57:44;9.20;99.90
15700;DHT22;7950;42.744;23.174;2023-04-20T01:00:13;9.20;99.90
15700;DHT22;7950;42.744;23.174;2023-04-20T01:02:43;9.30;99.90
15700;DHT22;7950;42.744;23.174;2023-04-20T01:05:12;9.30;99.90
15700;DHT22;7950;42.744;23.174;2023-04-20T01:07:41;9.30;99.90
15700;DHT22;7950;42.744;23.174;2023-04-20T01:10:09;9.40;99.90
15700;DHT22;7950;42.744;23.174;2023-04-20T01:12:38;9.40;99.90
15700;DHT22;7950;42.744;23.174;2023-04-20T01:15:08;9.40;99.90
15700;DHT22;7950;42.744;23.174;2023-04-20T01:17:37;9.40;99.90
15700;DHT22;7950;42.744;23.174;2023-04-20T01:20:09;9.50;99.90
15700;DHT22;7950;42.744;23.174;2023-04-20T01:22:44;9.50;99.90
15700;DHT22;7950;42.744;23.174;2023-04-20T01:25:14;9.50;99.90
15700;DHT22;7950;42.744;23.174;2023-04-20T01:27:43;9.50;99.90
15700;DHT22;7950;42.744;23.174;2023-04-20T01:30:12;9.50;99.90
15700;DHT22;7950;42.744;23.174;2023-04-20T01:32:41;9.50;99.90
15700;DHT22;7950;42.744;23.174;2023-04-20T01:35:10;9.50;99.90
15700;DHT22;7950;42.744;23.174;2023-04-20T01:37:41;9.40;99.90
15700;DHT22;7950;42.744;23.174;2023-04-20T01:40:12;9.40;99.90
15700;DHT22;7950;42.744;23.174;2023-04-20T01:42:42;9.40;99.90
15700;DHT22;7950;42.744;23.174;2023-04-20T01:45:10;9.40;99.90
15700;DHT22;7950;42.744;23.174;2023-04-20T01:47:39;9.30;99.90
15700;DHT22;7950;42.744;23.174;2023-04-20T01:50:08;9.30;99.90
15700;DHT22;7950;42.744;23.174;2023-04-20T01:52:36;9.30;99.90
15700;DHT22;7950;42.744;23.174;2023-04-20T01:55:06;9.20;99.90
15700;DHT22;7950;42.744;23.174;2023-04-20T01:57:37;9.20;99.90
15700;DHT22;7950;42.744;23.174;2023-04-20T02:00:06;9.20;99.90
15700;DHT22;7950;42.744;23.174;2023-04-20T02:02:36;9.20;99.90
15700;DHT22;7950;42.744;23.174;2023-04-20T02:05:05;9.20;99.90
15700;DHT22;7950;42.744;23.174;2023-04-20T02:07:34;9.20;99.90
15700;DHT22;7950;42.744;23.174;2023-04-20T02:10:03;9.10;99.90
15700;DHT22;7950;42.744;23.174;2023-04-20T02:12:32;9.10;99.90
15700;DHT22;7950;42.744;23.174;2023-04-20T02:15:02;9.10;99.90
15700;DHT22;7950;42.744;23.174;2023-04-20T02:17:32;9.10;99.90
15700;DHT22;7950;42.744;23.174;2023-04-20T02:20:02;9.10;99.90
15700;DHT22;7950;42.744;23.174;2023-04-20T02:22:32;9.10;99.90
15700;DHT22;7950;42.744;23.174;2023-04-20T02:25:01;9.00;99.90
15700;DHT22;7950;42.744;23.174;2023-04-20T02:27:30;9.00;99.90
15700;DHT22;7950;42.744;23.174;2023-04-20T02:29:59;9.00;99.90
15700;DHT22;7950;42.744;23.174;2023-04-20T02:32:29;9.00;99.90
15700;DHT22;7950;42.744;23.174;2023-04-20T02:34:59;9.00;99.90
15700;DHT22;7950;42.744;23.174;2023-04-20T02:37:27;9.00;99.90
15700;DHT22;7950;42.744;23.174;2023-04-20T02:39:56;9.00;99.90
15700;DHT22;7950;42.744;23.174;2023-04-20T02:42:25;9.00;99.90
15700;DHT22;7950;42.744;23.174;2023-04-20T02:44:53;9.00;99.90
15700;DHT22;7950;42.744;23.174;2023-04-20T02:47:22;9.00;99.90
15700;DHT22;7950;42.744;23.174;2023-04-20T02:49:53;8.90;99.90
15700;DHT22;7950;42.744;23.174;2023-04-20T02:52:21;8.90;99.90
15700;DHT22;7950;42.744;23.174;2023-04-20T02:54:50;8.90;99.90
15700;DHT22;7950;42.744;23.174;2023-04-20T02:57:18;8.90;99.90
15700;DHT22;7950;42.744;23.174;2023-04-20T02:59:47;8.80;99.90
15700;DHT22;7950;42.744;23.174;2023-04-20T03:02:16;8.80;99.90
15700;DHT22;7950;42.744;23.174;2023-04-20T03:04:45;8.90;99.90
15700;DHT22;7950;42.744;23.174;2023-04-20T03:07:15;8.90;99.90
15700;DHT22;7950;42.744;23.174;2023-04-20T03:09:44;8.90;99.90
15700;DHT22;7950;42.744;23.174;2023-04-20T03:12:12;9.00;99.90
15700;DHT22;7950;42.744;23.174;2023-04-20T03:14:41;8.90;99.90
15700;DHT22;7950;42.744;23.174;2023-04-20T03:17:09;8.90;99.90
15700;DHT22;7950;42.744;23.174;2023-04-20T03:19:38;8.90;99.90
15700;DHT22;7950;42.744;23.174;2023-04-20T03:22:07;8.90;99.90
15700;DHT22;7950;42.744;23.174;2023-04-20T03:25:02;8.90;99.90
15700;DHT22;7950;42.744;23.174;2023-04-20T03:27:32;8.90;99.90
15700;DHT22;7950;42.744;23.174;2023-04-20T03:30:30;8.90;99.90
15700;DHT22;7950;42.744;23.174;2023-04-20T03:32:58;8.90;99.90
15700;DHT22;7950;42.744;23.174;2023-04-20T03:35:27;8.90;99.90
15700;DHT22;7950;42.744;23.174;2023-04-20T03:37:55;8.90;99.90
15700;DHT22;7950;42.744;23.174;2023-04-20T03:40:26;8.90;99.90
15700;DHT22;7950;42.744;23.174;2023-04-20T03:42:54;8.90;99.90
15700;DHT22;7950;42.744;23.174;2023-04-20T03:45:23;8.90;99.90
15700;DHT22;7950;42.744;23.174;2023-04-20T03:47:51;8.90;99.90
15700;DHT22;7950;42.744;23.174;2023-04-20T03:50:20;8.90;99.90
15700;DHT22;7950;42.744;23.174;2023-04-20T03:52:48;8.90;99.90
15700;DHT22;7950;42.744;23.174;2023-04-20T03:55:17;8.90;99.90
15700;DHT22;7950;42.744;23.174;2023-04-20T03:57:47;8.90;99.90
15700;DHT22;7950;42.744;23.174;2023-04-20T04:00:16;8.90;99.90
15700;DHT22;7950;42.744;23.174;2023-04-20T04:02:44;8.90;99.90
15700;DHT22;7950;42.744;23.174;2023-04-20T04:05:13;8.90;99.90
15700;DHT22;7950;42.744;23.174;2023-04-20T04:07:42;9.00;99.90
15700;DHT22;7950;42.744;23.174;2023-04-20T04:10:22;9.00;99.90
15700;DHT22;7950;42.744;23.174;2023-04-20T04:12:52;9.00;99.90
15700;DHT22;7950;42.744;23.174;2023-04-20T04:15:21;9.00;99.90
15700;DHT22;7950;42.744;23.174;2023-04-20T04:17:49;9.10;99.90
15700;DHT22;7950;42.744;23.174;2023-04-20T04:20:18;9.10;99.90
15700;DHT22;7950;42.744;23.174;2023-04-20T04:22:46;9.10;99.90
15700;DHT22;7950;42.744;23.174;2023-04-20T04:25:15;9.10;99.90
15700;DHT22;7950;42.744;23.174;2023-04-20T04:28:10;9.10;99.90
15700;DHT22;7950;42.744;23.174;2023-04-20T04:30:40;9.10;99.90
15700;DHT22;7950;42.744;23.174;2023-04-20T04:33:09;9.10;99.90
15700;DHT22;7950;42.744;23.174;2023-04-20T04:35:40;9.20;99.90
15700;DHT22;7950;42.744;23.174;2023-04-20T04:38:10;9.20;99.90
15700;DHT22;7950;42.744;23.174;2023-04-20T04:40:40;9.20;99.90
15700;DHT22;7950;42.744;23.174;2023-04-20T04:43:13;9.20;99.90
15700;DHT22;7950;42.744;23.174;2023-04-20T04:45:42;9.30;99.90
15700;DHT22;7950;42.744;23.174;2023-04-20T04:48:12;9.30;99.90
15700;DHT22;7950;42.744;23.174;2023-04-20T04:50:41;9.30;99.90
15700;DHT22;7950;42.744;23.174;2023-04-20T04:53:09;9.30;99.90
15700;DHT22;7950;42.744;23.174;2023-04-20T04:55:38;9.30;99.90
15700;DHT22;7950;42.744;23.174;2023-04-20T04:58:06;9.30;99.90
15700;DHT22;7950;42.744;23.174;2023-04-20T05:00:36;9.30;99.90
15700;DHT22;7950;42.744;23.174;2023-04-20T05:03:06;9.40;99.90
15700;DHT22;7950;42.744;23.174;2023-04-20T05:05:34;9.40;99.90
15700;DHT22;7950;42.744;23.174;2023-04-20T05:08:04;9.40;99.90
15700;DHT22;7950;42.744;23.174;2023-04-20T05:10:33;9.50;99.90
15700;DHT22;7950;42.744;23.174;2023-04-20T05:13:01;9.50;99.90
15700;DHT22;7950;42.744;23.174;2023-04-20T05:15:30;9.50;99.90
15700;DHT22;7950;42.744;23.174;2023-04-20T05:18:00;9.60;99.90
15700;DHT22;7950;42.744;23.174;2023-04-20T05:20:29;9.70;99.90
15700;DHT22;7950;42.744;23.174;2023-04-20T05:22:57;9.70;99.90
15700;DHT22;7950;42.744;23.174;2023-04-20T05:25:26;9.70;99.90
15700;DHT22;7950;42.744;23.174;2023-04-20T05:28:20;9.70;99.90
15700;DHT22;7950;42.744;23.174;2023-04-20T05:30:48;9.70;99.90
15700;DHT22;7950;42.744;23.174;2023-04-20T05:33:18;9.70;99.90
15700;DHT22;7950;42.744;23.174;2023-04-20T05:35:47;9.70;99.90
15700;DHT22;7950;42.744;23.174;2023-04-20T05:38:17;9.70;99.90
15700;DHT22;7950;42.744;23.174;2023-04-20T05:40:45;9.70;99.90
15700;DHT22;7950;42.744;23.174;2023-04-20T05:43:16;9.70;99.90
15700;DHT22;7950;42.744;23.174;2023-04-20T05:45:45;9.70;99.90
15700;DHT22;7950;42.744;23.174;2023-04-20T05:48:15;9.90;99.90
15700;DHT22;7950;42.744;23.174;2023-04-20T05:50:45;9.90;99.90
15700;DHT22;7950;42.744;23.174;2023-04-20T05:53:39;9.90;99.90
15700;DHT22;7950;42.744;23.174;2023-04-20T05:56:07;9.90;99.90
15700;DHT22;7950;42.744;23.174;2023-04-20T05:58:36;9.90;99.90
15700;DHT22;7950;42.744;23.174;2023-04-20T06:01:05;9.80;99.90
15700;DHT22;7950;42.744;23.174;2023-04-20T06:03:33;9.80;99.90
15700;DHT22;7950;42.744;23.174;2023-04-20T06:06:04;9.80;99.90
15700;DHT22;7950;42.744;23.174;2023-04-20T06:08:32;9.90;99.90
15700;DHT22;7950;42.744;23.174;2023-04-20T06:11:01;9.90;99.90
15700;DHT22;7950;42.744;23.174;2023-04-20T06:13:30;10.00;99.90
15700;DHT22;7950;42.744;23.174;2023-04-20T06:15:58;10.00;99.90
15700;DHT22;7950;42.744;23.174;2023-04-20T06:18:32;10.00;99.90
15700;DHT22;7950;42.744;23.174;2023-04-20T06:21:02;10.00;99.90
15700;DHT22;7950;42.744;23.174;2023-04-20T06:23:31;10.00;99.90
15700;DHT22;7950;42.744;23.174;2023-04-20T06:25:59;10.00;99.90
15700;DHT22;7950;42.744;23.174;2023-04-20T06:28:28;10.00;99.90
15700;DHT22;7950;42.744;23.174;2023-04-20T06:30:56;10.00;99.90
15700;DHT22;7950;42.744;23.174;2023-04-20T06:33:25;10.00;99.90
15700;DHT22;7950;42.744;23.174;2023-04-20T06:35:54;10.00;99.90
15700;DHT22;7950;42.744;23.174;2023-04-20T06:38:24;10.00;99.90
15700;DHT22;7950;42.744;23.174;2023-04-20T06:40:52;10.10;99.90
15700;DHT22;7950;42.744;23.174;2023-04-20T06:43:23;10.00;99.90
15700;DHT22;7950;42.744;23.174;2023-04-20T06:45:51;10.00;99.90
15700;DHT22;7950;42.744;23.174;2023-04-20T06:48:20;10.00;99.90
15700;DHT22;7950;42.744;23.174;2023-04-20T06:50:58;10.00;99.90
15700;DHT22;7950;42.744;23.174;2023-04-20T06:53:28;10.10;99.90
15700;DHT22;7950;42.744;23.174;2023-04-20T06:55:57;10.20;99.90
15700;DHT22;7950;42.744;23.174;2023-04-20T06:58:26;10.20;99.90
15700;DHT22;7950;42.744;23.174;2023-04-20T07:00:54;10.20;99.90
15700;DHT22;7950;42.744;23.174;2023-04-20T07:03:23;10.20;99.90
15700;DHT22;7950;42.744;23.174;2023-04-20T07:05:51;10.20;99.90
15700;DHT22;7950;42.744;23.174;2023-04-20T07:08:20;10.20;99.90
15700;DHT22;7950;42.744;23.174;2023-04-20T07:10:50;10.30;99.90
15700;DHT22;7950;42.744;23.174;2023-04-20T07:13:18;10.40;99.90
15700;DHT22;7950;42.744;23.174;2023-04-20T07:15:47;10.40;99.90
15700;DHT22;7950;42.744;23.174;2023-04-20T07:18:15;10.50;99.90
15700;DHT22;7950;42.744;23.174;2023-04-20T07:20:44;10.60;99.90
15700;DHT22;7950;42.744;23.174;2023-04-20T07:23:12;10.70;99.90
15700;DHT22;7950;42.744;23.174;2023-04-20T07:25:41;10.70;99.90
15700;DHT22;7950;42.744;23.174;2023-04-20T07:28:11;10.70;99.90
15700;DHT22;7950;42.744;23.174;2023-04-20T07:30:39;10.80;99.90
15700;DHT22;7950;42.744;23.174;2023-04-20T07:33:08;10.80;99.90
15700;DHT22;7950;42.744;23.174;2023-04-20T07:35:37;10.90;99.90
15700;DHT22;7950;42.744;23.174;2023-04-20T07:38:05;11.00;99.90
15700;DHT22;7950;42.744;23.174;2023-04-20T07:40:34;11.10;99.90
15700;DHT22;7950;42.744;23.174;2023-04-20T07:43:03;11.20;99.90
15700;DHT22;7950;42.744;23.174;2023-04-20T07:45:57;11.30;99.90
15700;DHT22;7950;42.744;23.174;2023-04-20T07:48:27;11.40;99.90
15700;DHT22;7950;42.744;23.174;2023-04-20T07:50:56;11.60;99.90
15700;DHT22;7950;42.744;23.174;2023-04-20T07:53:24;11.70;99.90
15700;DHT22;7950;42.744;23.174;2023-04-20T07:55:53;11.80;99.90
15700;DHT22;7950;42.744;23.174;2023-04-20T07:58:22;11.90;99.90
15700;DHT22;7950;42.744;23.174;2023-04-20T08:00:50;11.90;99.90
15700;DHT22;7950;42.744;23.174;2023-04-20T08:03:20;11.90;99.90
15700;DHT22;7950;42.744;23.174;2023-04-20T08:05:49;12.00;99.90
15700;DHT22;7950;42.744;23.174;2023-04-20T08:08:17;12.10;99.90
15700;DHT22;7950;42.744;23.174;2023-04-20T08:10:46;12.10;99.90
15700;DHT22;7950;42.744;23.174;2023-04-20T08:13:14;12.10;99.90
15700;DHT22;7950;42.744;23.174;2023-04-20T08:15:43;12.10;99.90
15700;DHT22;7950;42.744;23.174;2023-04-20T08:18:11;12.10;99.90
15700;DHT22;7950;42.744;23.174;2023-04-20T08:20:41;12.00;99.90
15700;DHT22;7950;42.744;23.174;2023-04-20T08:23:11;12.00;99.90
15700;DHT22;7950;42.744;23.174;2023-04-20T08:25:40;11.90;99.90
15700;DHT22;7950;42.744;23.174;2023-04-20T08:28:09;11.90;99.90
15700;DHT22;7950;42.744;23.174;2023-04-20T08:30:45;11.80;99.90
15700;DHT22;7950;42.744;23.174;2023-04-20T08:33:14;11.80;99.90
15700;DHT22;7950;42.744;23.174;2023-04-20T08:35:44;11.80;99.90
15700;DHT22;7950;42.744;23.174;2023-04-20T08:38:12;11.80;99.90
15700;DHT22;7950;42.744;23.174;2023-04-20T08:40:46;11.90;99.90
15700;DHT22;7950;42.744;23.174;2023-04-20T08:43:15;11.90;99.90
15700;DHT22;7950;42.744;23.174;2023-04-20T08:45:46;12.00;99.90
15700;DHT22;7950;42.744;23.174;2023-04-20T08:48:19;12.00;99.90
15700;DHT22;7950;42.744;23.174;2023-04-20T08:50:49;12.10;99.90
15700;DHT22;7950;42.744;23.174;2023-04-20T08:53:18;12.10;99.90
15700;DHT22;7950;42.744;23.174;2023-04-20T08:55:48;12.10;99.90
15700;DHT22;7950;42.744;23.174;2023-04-20T08:58:17;12.20;99.90
15700;DHT22;7950;42.744;23.174;2023-04-20T09:00:46;12.20;99.90
15700;DHT22;7950;42.744;23.174;2023-04-20T09:03:14;12.20;99.90
15700;DHT22;7950;42.744;23.174;2023-04-20T09:05:44;12.20;99.90
15700;DHT22;7950;42.744;23.174;2023-04-20T09:08:14;12.20;99.90
15700;DHT22;7950;42.744;23.174;2023-04-20T09:10:43;12.20;99.90
15700;DHT22;7950;42.744;23.174;2023-04-20T09:13:20;12.20;99.90
15700;DHT22;7950;42.744;23.174;2023-04-20T09:15:49;12.30;99.90
15700;DHT22;7950;42.744;23.174;2023-04-20T09:18:18;12.40;99.90
15700;DHT22;7950;42.744;23.174;2023-04-20T09:20:47;12.40;99.90
15700;DHT22;7950;42.744;23.174;2023-04-20T09:23:17;12.40;99.90
15700;DHT22;7950;42.744;23.174;2023-04-20T09:25:50;12.50;99.90
15700;DHT22;7950;42.744;23.174;2023-04-20T09:28:19;12.60;99.90
15700;DHT22;7950;42.744;23.174;2023-04-20T09:30:48;12.60;99.90
15700;DHT22;7950;42.744;23.174;2023-04-20T09:33:17;12.80;99.90
15700;DHT22;7950;42.744;23.174;2023-04-20T09:35:46;12.90;99.90
15700;DHT22;7950;42.744;23.174;2023-04-20T09:38:23;13.10;99.90
15700;DHT22;7950;42.744;23.174;2023-04-20T09:40:53;13.20;99.90
15700;DHT22;7950;42.744;23.174;2023-04-20T09:43:23;13.40;99.90
15700;DHT22;7950;42.744;23.174;2023-04-20T09:45:54;13.50;99.90
15700;DHT22;7950;42.744;23.174;2023-04-20T09:48:23;13.60;99.90
15700;DHT22;7950;42.744;23.174;2023-04-20T09:50:52;13.60;99.90
15700;DHT22;7950;42.744;23.174;2023-04-20T09:53:22;13.80;99.90
15700;DHT22;7950;42.744;23.174;2023-04-20T09:55:52;13.90;99.90
15700;DHT22;7950;42.744;23.174;2023-04-20T09:58:23;14.00;99.90
15700;DHT22;7950;42.744;23.174;2023-04-20T10:00:53;14.00;99.90
15700;DHT22;7950;42.744;23.174;2023-04-20T10:03:24;14.00;99.90
15700;DHT22;7950;42.744;23.174;2023-04-20T10:05:53;14.10;99.90
15700;DHT22;7950;42.744;23.174;2023-04-20T10:08:24;14.20;99.90
15700;DHT22;7950;42.744;23.174;2023-04-20T10:10:53;14.20;99.90
15700;DHT22;7950;42.744;23.174;2023-04-20T10:13:32;14.30;99.90
15700;DHT22;7950;42.744;23.174;2023-04-20T10:16:26;14.30;99.90
15700;DHT22;7950;42.744;23.174;2023-04-20T10:18:56;14.10;99.90
15700;DHT22;7950;42.744;23.174;2023-04-20T10:21:29;14.10;99.90
15700;DHT22;7950;42.744;23.174;2023-04-20T10:24:00;14.00;99.90
15700;DHT22;7950;42.744;23.174;2023-04-20T10:26:35;13.90;99.90
15700;DHT22;7950;42.744;23.174;2023-04-20T10:29:04;13.80;99.90
15700;DHT22;7950;42.744;23.174;2023-04-20T10:31:35;13.60;99.90
15700;DHT22;7950;42.744;23.174;2023-04-20T10:34:30;13.60;99.90
15700;DHT22;7950;42.744;23.174;2023-04-20T10:37:09;13.50;99.90
15700;DHT22;7950;42.744;23.174;2023-04-20T10:39:44;13.50;99.90
15700;DHT22;7950;42.744;23.174;2023-04-20T10:42:14;13.50;99.90
15700;DHT22;7950;42.744;23.174;2023-04-20T10:44:47;13.50;99.90
15700;DHT22;7950;42.744;23.174;2023-04-20T10:47:26;13.50;99.90
15700;DHT22;7950;42.744;23.174;2023-04-20T10:50:05;13.50;99.90
15700;DHT22;7950;42.744;23.174;2023-04-20T10:52:37;13.60;99.90
15700;DHT22;7950;42.744;23.174;2023-04-20T10:55:18;13.80;99.90
15700;DHT22;7950;42.744;23.174;2023-04-20T10:57:52;13.90;99.90
15700;DHT22;7950;42.744;23.174;2023-04-20T11:00:28;14.00;99.90
15700;DHT22;7950;42.744;23.174;2023-04-20T11:02:57;14.00;99.90
15700;DHT22;7950;42.744;23.174;2023-04-20T11:05:26;14.00;99.90
15700;DHT22;7950;42.744;23.174;2023-04-20T11:07:56;14.00;99.90
15700;DHT22;7950;42.744;23.174;2023-04-20T11:10:39;14.30;99.90
15700;DHT22;7950;42.744;23.174;2023-04-20T11:13:18;14.60;99.90
15700;DHT22;7950;42.744;23.174;2023-04-20T11:15:48;15.00;99.90
15700;DHT22;7950;42.744;23.174;2023-04-20T11:18:16;15.30;99.90
15700;DHT22;7950;42.744;23.174;2023-04-20T11:20:54;15.70;99.90
15700;DHT22;7950;42.744;23.174;2023-04-20T11:23:24;15.90;99.90
15700;DHT22;7950;42.744;23.174;2023-04-20T11:25:55;15.90;99.90
15700;DHT22;7950;42.744;23.174;2023-04-20T11:28:49;15.90;99.90
15700;DHT22;7950;42.744;23.174;2023-04-20T11:31:30;16.10;99.90
15700;DHT22;7950;42.744;23.174;2023-04-20T11:33:59;16.10;99.60
15700;DHT22;7950;42.744;23.174;2023-04-20T11:36:27;16.00;99.50
15700;DHT22;7950;42.744;23.174;2023-04-20T11:39:06;16.00;98.40
15700;DHT22;7950;42.744;23.174;2023-04-20T11:41:40;15.80;99.50
15700;DHT22;7950;42.744;23.174;2023-04-20T11:44:09;15.70;99.90
15700;DHT22;7950;42.744;23.174;2023-04-20T11:46:38;15.60;99.90
15700;DHT22;7950;42.744;23.174;2023-04-20T11:49:06;15.50;99.20
15700;DHT22;7950;42.744;23.174;2023-04-20T11:51:35;15.30;99.70
15700;DHT22;7950;42.744;23.174;2023-04-20T11:54:03;15.20;99.90
15700;DHT22;7950;42.744;23.174;2023-04-20T11:56:32;15.00;99.90
15700;DHT22;7950;42.744;23.174;2023-04-20T11:59:02;14.80;99.90
15700;DHT22;7950;42.744;23.174;2023-04-20T12:01:30;14.70;99.90
15700;DHT22;7950;42.744;23.174;2023-04-20T12:03:59;14.50;99.90
15700;DHT22;7950;42.744;23.174;2023-04-20T12:06:29;14.40;99.90
15700;DHT22;7950;42.744;23.174;2023-04-20T12:09:23;14.20;99.90
15700;DHT22;7950;42.744;23.174;2023-04-20T12:11:52;14.20;99.90
15700;DHT22;7950;42.744;23.174;2023-04-20T12:14:22;14.10;99.90
15700;DHT22;7950;42.744;23.174;2023-04-20T12:17:17;14.20;99.90
15700;DHT22;7950;42.744;23.174;2023-04-20T12:19:56;14.30;99.90
15700;DHT22;7950;42.744;23.174;2023-04-20T12:22:25;14.40;99.90
15700;DHT22;7950;42.744;23.174;2023-04-20T12:25:02;14.40;99.90
15700;DHT22;7950;42.744;23.174;2023-04-20T12:27:32;14.50;99.90
15700;DHT22;7950;42.744;23.174;2023-04-20T12:30:02;14.60;99.90
15700;DHT22;7950;42.744;23.174;2023-04-20T12:32:30;14.80;99.90
15700;DHT22;7950;42.744;23.174;2023-04-20T12:34:59;15.00;99.90
15700;DHT22;7950;42.744;23.174;2023-04-20T12:37:28;15.20;99.90
15700;DHT22;7950;42.744;23.174;2023-04-20T12:39:57;15.30;99.90
15700;DHT22;7950;42.744;23.174;2023-04-20T12:42:26;15.40;99.90
15700;DHT22;7950;42.744;23.174;2023-04-20T12:44:55;15.60;99.90
15700;DHT22;7950;42.744;23.174;2023-04-20T12:47:25;15.70;99.90
15700;DHT22;7950;42.744;23.174;2023-04-20T12:49:53;15.80;99.90
15700;DHT22;7950;42.744;23.174;2023-04-20T12:52:22;15.90;99.90
15700;DHT22;7950;42.744;23.174;2023-04-20T12:54:50;16.00;99.90
15700;DHT22;7950;42.744;23.174;2023-04-20T12:57:19;16.00;99.30
15700;DHT22;7950;42.744;23.174;2023-04-20T12:59:47;16.00;97.10
15700;DHT22;7950;42.744;23.174;2023-04-20T13:02:16;16.10;97.30
15700;DHT22;7950;42.744;23.174;2023-04-20T13:04:46;16.10;94.90
15700;DHT22;7950;42.744;23.174;2023-04-20T13:07:15;16.10;94.50
15700;DHT22;7950;42.744;23.174;2023-04-20T13:09:43;16.10;95.00
15700;DHT22;7950;42.744;23.174;2023-04-20T13:12:12;16.00;96.60
15700;DHT22;7950;42.744;23.174;2023-04-20T13:14:40;16.10;98.30
15700;DHT22;7950;42.744;23.174;2023-04-20T13:17:09;16.00;98.30
15700;DHT22;7950;42.744;23.174;2023-04-20T13:19:38;16.00;98.10
15700;DHT22;7950;42.744;23.174;2023-04-20T13:22:08;15.80;99.90
15700;DHT22;7950;42.744;23.174;2023-04-20T13:24:41;15.70;99.90
15700;DHT22;7950;42.744;23.174;2023-04-20T13:27:10;15.50;99.90
15700;DHT22;7950;42.744;23.174;2023-04-20T13:29:40;15.30;99.90
15700;DHT22;7950;42.744;23.174;2023-04-20T13:32:33;15.20;99.90
15700;DHT22;7950;42.744;23.174;2023-04-20T13:35:05;15.00;99.90
15700;DHT22;7950;42.744;23.174;2023-04-20T13:37:39;14.80;99.90
15700;DHT22;7950;42.744;23.174;2023-04-20T13:40:09;14.80;99.90
15700;DHT22;7950;42.744;23.174;2023-04-20T13:42:39;14.90;99.90
15700;DHT22;7950;42.744;23.174;2023-04-20T13:45:08;15.00;99.90
15700;DHT22;7950;42.744;23.174;2023-04-20T13:47:37;15.00;99.90
15700;DHT22;7950;42.744;23.174;2023-04-20T13:50:07;15.00;99.90
15700;DHT22;7950;42.744;23.174;2023-04-20T13:52:38;15.10;99.90
15700;DHT22;7950;42.744;23.174;2023-04-20T13:55:07;15.20;99.90
15700;DHT22;7950;42.744;23.174;2023-04-20T13:57:36;15.30;99.90
15700;DHT22;7950;42.744;23.174;2023-04-20T14:00:23;15.30;99.90
15700;DHT22;7950;42.744;23.174;2023-04-20T14:02:52;15.30;99.90
15700;DHT22;7950;42.744;23.174;2023-04-20T14:05:21;15.30;99.90
15700;DHT22;7950;42.744;23.174;2023-04-20T14:07:51;15.20;99.90
15700;DHT22;7950;42.744;23.174;2023-04-20T14:10:20;15.10;99.90
15700;DHT22;7950;42.744;23.174;2023-04-20T14:12:48;15.10;99.90
15700;DHT22;7950;42.744;23.174;2023-04-20T14:15:17;15.00;99.90
15700;DHT22;7950;42.744;23.174;2023-04-20T14:17:46;14.90;99.90
15700;DHT22;7950;42.744;23.174;2023-04-20T14:20:18;14.80;99.90
15700;DHT22;7950;42.744;23.174;2023-04-20T14:22:47;14.80;99.90
15700;DHT22;7950;42.744;23.174;2023-04-20T14:25:17;14.70;99.90
15700;DHT22;7950;42.744;23.174;2023-04-20T14:27:45;14.50;99.90
15700;DHT22;7950;42.744;23.174;2023-04-20T14:30:14;14.40;99.90
15700;DHT22;7950;42.744;23.174;2023-04-20T14:32:52;14.30;99.90
15700;DHT22;7950;42.744;23.174;2023-04-20T14:35:22;14.20;99.90
15700;DHT22;7950;42.744;23.174;2023-04-20T14:37:52;14.10;99.90
15700;DHT22;7950;42.744;23.174;2023-04-20T14:40:22;14.00;99.90
15700;DHT22;7950;42.744;23.174;2023-04-20T14:42:50;13.90;99.90
15700;DHT22;7950;42.744;23.174;2023-04-20T14:45:19;13.80;99.90
15700;DHT22;7950;42.744;23.174;2023-04-20T14:47:51;13.80;99.90
15700;DHT22;7950;42.744;23.174;2023-04-20T14:50:21;13.80;99.90
15700;DHT22;7950;42.744;23.174;2023-04-20T14:52:54;13.80;99.90
15700;DHT22;7950;42.744;23.174;2023-04-20T14:55:24;13.70;99.90
15700;DHT22;7950;42.744;23.174;2023-04-20T14:57:54;13.70;99.90
15700;DHT22;7950;42.744;23.174;2023-04-20T15:00:24;13.70;99.90
15700;DHT22;7950;42.744;23.174;2023-04-20T15:02:54;13.70;99.90
15700;DHT22;7950;42.744;23.174;2023-04-20T15:05:24;13.60;99.90
15700;DHT22;7950;42.744;23.174;2023-04-20T15:07:55;13.60;99.90
15700;DHT22;7950;42.744;23.174;2023-04-20T15:10:25;13.60;99.90
15700;DHT22;7950;42.744;23.174;2023-04-20T15:12:53;13.50;99.90
15700;DHT22;7950;42.744;23.174;2023-04-20T15:15:22;13.50;99.90
15700;DHT22;7950;42.744;23.174;2023-04-20T15:18:07;13.40;99.90
15700;DHT22;7950;42.744;23.174;2023-04-20T15:20:36;13.40;99.90
15700;DHT22;7950;42.744;23.174;2023-04-20T15:23:09;13.40;99.90
15700;DHT22;7950;42.744;23.174;2023-04-20T15:25:39;13.40;99.90
15700;DHT22;7950;42.744;23.174;2023-04-20T15:28:08;13.40;99.90
15700;DHT22;7950;42.744;23.174;2023-04-20T15:30:37;13.40;99.90
15700;DHT22;7950;42.744;23.174;2023-04-20T15:33:05;13.40;99.90
15700;DHT22;7950;42.744;23.174;2023-04-20T15:35:34;13.40;99.90
15700;DHT22;7950;42.744;23.174;2023-04-20T15:38:03;13.40;99.90
15700;DHT22;7950;42.744;23.174;2023-04-20T15:40:31;13.40;99.90
15700;DHT22;7950;42.744;23.174;2023-04-20T15:43:01;13.40;99.90
15700;DHT22;7950;42.744;23.174;2023-04-20T15:45:30;13.40;99.90
15700;DHT22;7950;42.744;23.174;2023-04-20T15:47:58;13.40;99.90
15700;DHT22;7950;42.744;23.174;2023-04-20T15:50:27;13.40;99.90
15700;DHT22;7950;42.744;23.174;2023-04-20T15:52:56;13.30;99.90
15700;DHT22;7950;42.744;23.174;2023-04-20T15:55:24;13.30;99.90
15700;DHT22;7950;42.744;23.174;2023-04-20T15:57:53;13.30;99.90